カラカス の空港の天気 - METARとTAF

シモン・ボリバー空港(バルガス) ( SVMI / CCS ) - ベネズエラ バルガス州、Maiquetia (カラカス近郊)
飛行場実況気象(Metar)
観測時間04/26 07:00 VET (04/26 11:00 UTC)
風向・風速東 1m/s
視程10km以上
天気現象
少しの雲 雲底高度 490m
気温26℃
湿度79%
気圧1006hPa
METARSVMI 261100Z 09002KT 9999 FEW016 26/22 Q1006
過去の天気等 Google飛行場航空写真 Wunderground天気予報

過去48時間のMETAR

飛行場予報(TAF)
発表時間: 4/25 18:00 VET (4/25 22:00 UTC)
予報対象時間: 25日8時 VET ~ 26日8時 VET
風向・風速静穏
視程10km以上
少しの雲 雲底高度 610m
25日11時 VET ~ 25日16時 VET に徐々に
風向・風速北東 4m/s
全天の4割程度の雲 雲底高度 490m
SVMI 252200Z 2512/2612 00000KT 9999 FEW020 TX31/18Z TN24/08Z
BECMG 2515/2520 05007KT SCT016